Tiempo atmosférico en la estación meteorológica de Elgoibar, Gipuzkoa (120 m.)



Fecha
DESCASC
Temp. máxima en grados centígrados (hora)
DESCASC
Temp. mínima en grados centígrados (hora)
DESCASC
Temp. media en grados centígrados
DESCASC
Racha de viento máxima en m/sg (hora)
DESCASC
Velocidad máxima media en intervalos de 10 minutos(hora)
DESCASC
Precipitaciones diarias en mm
DESCASC
Precipitaciones de 00:00 a 06:00 en mm
DESCASC
Precipitaciones de 06:00 a 12:00 en mm
DESCASC
Precipitaciones de 12:00 a 18:00 en mm
DESCASC
Precipitaciones de 18:00 a 24:00 en mm
DESCASC
13-10-2019 26.5 (15:00) 14.6 (23:59) 20.6 12.5 (08:30) 4.17 (09:00) 0 0 0 0 0
12-10-2019 26.8 (17:50) 18.9 (02:40) 22.8 13.89 (23:20) 6.39 (19:50) 0.5 0 0 0 0.5
11-10-2019 27.7 (16:10) 9.9 (02:30) 18.8 10 (10:50) 5.28 (08:50) 0 0 0 0 0
10-10-2019 21 (15:10) 9.2 (00:00) 15.1 6.67 (16:40) 3.61 (16:10) 0 0 0 0 0
09-10-2019 19.5 (14:40) 12 (00:00) 15.8 8.33 (12:50) 3.61 (16:30) 0.6 0.5 0.1 0 0
08-10-2019 24.8 (14:40) 8.7 (00:00) 16.7 5 (19:40) 2.78 (15:50) 1.2 0 0 0 1.2
07-10-2019 21.8 (15:00) 10.9 (00:00) 16.3 5.28 (16:00) 3.06 (16:00) 0 0 0 0 0
06-10-2019 17.6 (15:30) 11.9 (00:00) 14.8 5.83 (12:50) 2.78 (12:50) 1.4 0 0 1.3 0.1
05-10-2019 19.8 (13:20) 13.4 (00:00) 16.6 4.72 (17:50) 2.5 (13:50) 0.7 0.7 0 0 0
04-10-2019 16.8 (14:40) 13.1 (00:00) 14.9 3.61 (15:00) 1.94 (15:00) 2.3 0 0.1 1.9 0.3
03-10-2019 22 (15:10) 11.9 (00:00) 16.9 5.28 (15:30) 2.78 (15:30) 0.1 0 0.1 0 0
02-10-2019 17.4 (00:30) 13.4 (00:00) 15.4 10 (02:50) 2.5 (02:20) 13.1 4.3 5.2 3.6 0
01-10-2019 22.8 (14:20) 13.8 (00:00) 18.3 6.67 (20:30) 3.06 (20:30) 0 0 0 0 0
30-09-2019 26 (14:00) 14.4 (00:00) 20.2 5 (15:50) 3.06 (15:20) 0 0 0 0 0
29-09-2019 29.5 (14:50) 12.7 (00:00) 21.1 9.44 (08:40) 4.72 (08:30) 0 0 0 0 0
28-09-2019 22.1 (14:00) 13.7 (00:00) 17.9 6.39 (15:50) 3.33 (15:20) 0 0 0 0 0
27-09-2019 23 (12:50) 12 (00:00) 17.5 6.11 (16:10) 3.89 (16:10) 0 0 0 0 0
26-09-2019 21.8 (12:50) 12.2 (00:00) 17 6.39 (16:40) 3.89 (16:40) 0 0 0 0 0
25-09-2019 21.1 (15:30) 13.1 (00:00) 17.1 6.11 (11:00) 2.78 (11:00) 0.2 0.2 0 0 0
24-09-2019 25.9 (13:50) 15.4 (00:00) 20.6 15.83 (04:40) 6.67 (06:10) 1.7 0 0 0 1.7
23-09-2019 23.1 (17:10) 11.8 (00:00) 17.5 9.72 (12:50) 3.06 (14:30) 0.1 0 0.1 0 0
22-09-2019 24.2 (01:10) 14.2 (00:00) 19.2 13.89 (01:10) 4.17 (00:50) 18.2 5.9 11.1 0 1.2
21-09-2019 26.2 (13:30) 20.1 (00:00) 23.2 14.17 (05:30) 5.83 (04:00) 0.1 0.1 0 0 0
20-09-2019 29.8 (16:10) 13.5 (00:00) 21.6 15.28 (12:30) 7.78 (12:10) 0 0 0 0 0
19-09-2019 24.3 (14:00) 13.5 (00:00) 18.9 6.67 (16:30) 3.89 (15:10) 0 0 0 0 0
18-09-2019 24.2 (15:30) 15.9 (00:00) 20.1 5.83 (18:20) 3.33 (18:20) 0.1 0 0 0.1 0
17-09-2019 25.7 (15:40) 14.8 (00:00) 20.3 5.83 (16:50) 3.33 (14:00) 0 0 0 0 0
16-09-2019 25 (13:10) 16.8 (00:00) 20.9 6.39 (14:00) 3.89 (14:00) 1.6 1.1 0.5 0 0

Gráficas

Temp. máximas Temp. mínimas Temp. medias Precipitaciones Rachas de viento máximas Velocidades máximas media en intervalos de 10 minutos

Datos horarios

Fecha y hora oficial Temperatura (ºC) Velocidad del viento (km/h) Dirección del viento Racha (km/h) Dirección de racha Precipitación (mm) Presión (hPa) Tendencia (hPa) Humedad (%)
2019-10-15 23:00:00 16.3 12 Sur 36 Sudoeste 0 1002.9 -0.2 48
2019-10-15 22:00:00 16.4 11 Sur 38 Sur 0 1002.8 0 49
2019-10-15 21:00:00 16.5 9 Sur 31 Sur 0 1003 0.3 49
2019-10-15 20:00:00 17 10 Sur 28 Sur 0 1003.1 0.1 48
2019-10-15 19:00:00 17.3 6 Sur 15 Sudeste 0 1002.8 -0.2 50
2019-10-15 18:00:00 17.7 3 Sur 13 Sur 0 1002.7 -0.4 51
2019-10-15 17:00:00 18.3 5 Sur 15 Este 0 1003 -0.6 50
2019-10-15 16:00:00 19 5 Sudoeste 15 Oeste 0 1003 -0.8 47
2019-10-15 15:00:00 18.5 2 Sudoeste 24 Sur 0 1003.1 -0.9 49
2019-10-15 14:00:00 18.1 6 Sur 20 Sudoeste 0 1003.6 -0.1 49
2019-10-15 13:00:00 17.6 5 Sur 20 Sudeste 0 1003.8 0.4 52
2019-10-15 12:00:00 16.2 8 Sur 24 Sudoeste 0 1004 1.1 54
2019-10-15 11:00:00 14.2 5 Sudoeste 14 Sudoeste 0 1003.7 1.6 65
2019-10-15 10:00:00 11.5 6 Sudoeste 15 Sudoeste 0 1003.4 1.6 79
2019-10-15 09:00:00 10 5 Sudoeste 14 Sudoeste 0 1002.9 1.4 85
2019-10-15 08:00:00 9.5 6 Sudoeste 17 Sudoeste 0 1002.1 1.1 89
2019-10-15 07:00:00 9.3 5 Sudoeste 15 Sudoeste 0 1001.8 1 90
2019-10-15 06:00:00 9.4 7 Sudoeste 14 Sudoeste 0 1001.5 0.9 90
2019-10-15 05:00:00 9.5 3 Sudoeste 17 Sudoeste 0 1001 0.8 90
2019-10-15 04:00:00 9.8 6 Sudoeste 18 Sudoeste 0 1000.8 1 87
2019-10-15 03:00:00 10.8 3 Sudoeste 16 Sudoeste 0 1000.6 1.2 87
2019-10-15 02:00:00 10.6 3 Sudoeste 13 Sudoeste 0 1000.2 1 89
2019-10-15 01:00:00 11.1 3 Sudoeste 20 Sur 0 999.8 2 88
2019-10-15 00:00:00 11.3 9 Sudoeste 22 Sudoeste 0.9 999.4 2.7 87
2019-10-14 23:00:00 11.5 8 Sudoeste 22 Sudoeste 1.7 999.2 3.7 86
2019-10-14 22:00:00 12.5 8 Oeste 28 Oeste 0.2 997.8 3 82
2019-10-14 21:00:00 14 8 Sudoeste 30 Sur 0.9 996.7 2.2 80
2019-10-14 20:00:00 15 2 Sudoeste 16 Oeste 0.1 995.5 1.8 74
2019-10-14 19:00:00 16.3 0 Calma 10 Norte 0 994.8 1.6 81
2019-10-14 18:00:00 16.6 7 Norte 25 Noroeste 0 994.5 1.9 78
2019-10-14 17:00:00 17.1 14 Norte 32 Norte 0 993.7 1 74
2019-10-14 16:00:00 22.5 12 Sur 52 Sur 0 993.2 1.8 44
2019-10-14 15:00:00 21.9 15 Sudoeste 39 Sudoeste 0 992.6 1 51
2019-10-14 14:00:00 18.6 5 Noroeste 28 Noroeste 3.9 992.7 0.6 85
2019-10-14 13:00:00 18.9 12 Norte 28 Nordeste 0 991.4 -0.9 70
2019-10-14 12:00:00 22.5 4 Este 24 Este 0 991.6 -0.1 60
2019-10-14 11:00:00 20.2 3 Sur 10 Sudoeste 0 992.1 0.9 71
2019-10-14 10:00:00 19 3 Sudoeste 10 Noroeste 0 992.3 1.1 70
2019-10-14 09:00:00 19.3 4 Oeste 17 Sur 0 991.7 0.3 65
2019-10-14 08:00:00 20.9 3 Sudoeste 39 Este 0 991.2 -0.5 60
2019-10-14 07:00:00 21.4 3 Este 42 Este 0 991.2 -1.3 59
2019-10-14 06:00:00 21.5 14 Este 45 Este 0 991.4 -2.3 59
2019-10-14 05:00:00 21.3 8 Este 42 Nordeste 0 991.7 -2.6 60
2019-10-14 04:00:00 20.7 5 Oeste 19 Sudoeste 0 992.5 -2.1 61
2019-10-14 03:00:00 20.8 2 Sur 18 Este 0 993.7 -1.6 60
2019-10-14 02:00:00 21.2 4 Sur 21 Sudoeste 0 994.3 -1.7 62
2019-10-14 01:00:00 17.5 9 Sudoeste 18 Sur 0 994.6 -1.4 83
2019-10-14 00:00:00 14.6 2 Sur 10 Sudoeste 0 995.3 -1.1 88
2019-10-13 23:00:00 15.1 0 Calma -- -- 0 996 -0.1 84
2019-10-13 22:00:00 16.9 0 Calma 6 Sudoeste 0 996 0.5 77
2019-10-13 21:00:00 18.6 0 Calma 7 Sur 0 996.4 0.6 70
2019-10-13 20:00:00 21.5 0 Calma 19 Nordeste 0 996.1 0.1 61
2019-10-13 19:00:00 22.9 0 Calma 4 Nordeste 0 995.5 -0.5 64
2019-10-13 18:00:00 23.2 0 Calma 11 Este 0 995.8 -0.2 63
2019-10-13 17:00:00 25.2 0 Calma 7 Noroeste 0 996 -0.5 59
2019-10-13 16:00:00 25.6 2 Sur 10 Noroeste 0 996 -1 54
2019-10-13 15:00:00 26.5 4 Sudoeste 15 Sudoeste 0 996 -1.1 50
2019-10-13 14:00:00 25.3 3 Nordeste 31 Nordeste 0 996.5 -0.3 51
2019-10-13 13:00:00 24.2 2 Sudeste 34 Este 0 997 1 54
2019-10-13 12:00:00 24.1 8 Este 24 Sudeste 0 997.1 2.3 53
2019-10-13 11:00:00 23.5 3 Este 31 Este 0 996.8 2.5 55
2019-10-13 10:00:00 22.6 3 Oeste 41 Nordeste 0 996 1.8 56
2019-10-13 09:00:00 21.5 15 Este 45 Este 0 994.8 0.9 57
2019-10-13 08:00:00 21.3 5 Sudeste 36 Este 0 994.3 0.2 58
2019-10-13 07:00:00 21.2 5 Sudoeste 41 Este 0 994.2 -0.6 57
2019-10-13 06:00:00 21.6 3 Sur 38 Sudeste 0 993.9 -1.6 56
2019-10-13 05:00:00 21.7 7 Sudeste 37 Sudeste 0 994.1 -1.6 55
2019-10-13 04:00:00 22 8 Sudoeste 27 Sudoeste 0 994.8 -1.1 56
2019-10-13 03:00:00 22.5 2 Sur 22 Nordeste 0 995.5 -0.8 57
2019-10-13 02:00:00 22.8 2 Sudoeste 23 Este 0 995.7 -0.8 56
2019-10-13 01:00:00 23.2 6 Sudeste 36 Este 0 995.9 -0.8 57
2019-10-13 00:00:00 23.5 4 Norte 50 Este 0 996.3 0.2 57
2019-10-12 23:00:00 23.6 2 Nordeste 30 Este 0 996.5 0.7 57
2019-10-12 22:00:00 22.8 0 Calma 26 Este 0 996.7 1.2 59
2019-10-12 21:00:00 23.6 8 Sudeste 39 Este 0 996.1 0.6 56
2019-10-12 20:00:00 24.4 15 Sudeste 45 Sudeste 0 995.8 -0.2 54
2019-10-12 19:00:00 22.6 3 Sudoeste 30 Nordeste 0.5 995.5 -1.2 68
2019-10-12 18:00:00 26.3 6 Este 39 Este 0 995.5 -2.1 49
2019-10-12 17:00:00 26 7 Este 35 Este 0 996 -2.5 52
2019-10-12 16:00:00 25.6 10 Este 38 Este 0 996.7 -2.3 54
2019-10-12 15:00:00 25.3 3 Sur 18 Este 0 997.6 -1.5 54
2019-10-12 14:00:00 24 6 Sur 16 Sur 0 998.5 -0.4 56
2019-10-12 13:00:00 23 6 Sudoeste 14 Sudoeste 0 999 0.2 63
2019-10-12 12:00:00 21.6 0 Calma 9 Noroeste 0 999.1 0.6 71
2019-10-12 11:00:00 21 4 Noroeste 13 Sudoeste 0 998.9 0.7 68
2019-10-12 10:00:00 20.2 2 Sur 13 Sudoeste 0 998.8 0.6 71
2019-10-12 09:00:00 20.4 0 Calma 17 Este 0 998.5 0.1 70
2019-10-12 08:00:00 19.6 0 Calma 11 Noroeste 0 998.2 -0.2 75
2019-10-12 07:00:00 19.6 0 Calma 11 Sudoeste 0 998.2 -0.4 77
2019-10-12 06:00:00 19.5 6 Sudoeste 15 Sudoeste 0 998.4 -0.7 77
2019-10-12 05:00:00 19.4 5 Sudoeste 11 Sudoeste 0 998.4 -1 78
2019-10-12 04:00:00 19.1 0 Calma 12 Sudoeste 0 998.6 -1.1 77
2019-10-12 03:00:00 19.1 0 Calma 14 Sudoeste 0 999.1 -0.8 76
2019-10-12 02:00:00 19.3 5 Sudoeste 17 Sudoeste 0 999.4 -0.6 74
2019-10-12 01:00:00 19.2 6 Sudoeste 19 Oeste 0 999.7 0.2 74
2019-10-12 00:00:00 19.4 11 Sudoeste 22 Sudoeste 0 999.9 0.3 74
2019-10-11 23:00:00 19.5 11 Sudoeste 25 Sudoeste 0 1000 0.6 72
2019-10-11 22:00:00 18.1 2 Este 10 Sudoeste 0 999.5 0.1 77
2019-10-11 21:00:00 18.7 0 Calma 13 Sudoeste 0 999.6 0.3 74
2019-10-11 20:00:00 20.1 0 Calma 5 Oeste 0 999.4 -0.6 66
2019-10-11 19:00:00 22.7 0 Calma 0 Calma 0 999.4 -1.2 55
2019-10-11 18:00:00 24.9 0 Calma 8 Sudeste 0 999.3 -1.8 48
2019-10-11 17:00:00 26.8 4 Sur 15 Este 0 1000 -1.7 43
2019-10-11 16:00:00 27.6 6 Sur 16 Nordeste 0 1000.6 -2.7 40
2019-10-11 15:00:00 26.7 3 Sudeste 26 Sur 0 1001.1 -2.6 42
2019-10-11 14:00:00 25.4 7 Sur 25 Sudoeste 0 1001.7 -2.3 45
2019-10-11 13:00:00 23.9 3 Sudoeste 26 Sudoeste 0 1003.3 -0.3 50
2019-10-11 12:00:00 22.3 8 Sudoeste 21 Sudoeste 0 1003.7 0.6 53
2019-10-11 11:00:00 18.2 14 Sudoeste 36 Sudoeste 0 1004 0.9 64
2019-10-11 10:00:00 13.8 15 Sudoeste 32 Sudoeste 0 1003.6 1 77
2019-10-11 09:00:00 11.7 17 Sudoeste 31 Sudoeste 0 1003.1 0.4 82
2019-10-11 08:00:00 12.6 14 Sudoeste 30 Sudoeste 0 1003.1 -0.2 83
2019-10-11 07:00:00 11.1 7 Sudoeste 29 Sudoeste 0 1002.6 -1.7 90
2019-10-11 06:00:00 10.9 14 Sudoeste 33 Sudoeste 0 1002.7 -2.3 93
2019-10-11 05:00:00 10.3 10 Sudoeste 22 Sudoeste 0 1003.3 -2.1 95
2019-10-11 04:00:00 10.5 5 Sur 17 Sudoeste 0 1004.3 -1.7 95
2019-10-11 03:00:00 10.4 6 Sur 17 Sudoeste 0 1005 -1.6 95
2019-10-11 02:00:00 10 0 Calma -- -- 0 1005.4 -1.2 94
2019-10-11 01:00:00 10.4 0 Calma -- -- 0 1006 -1 93
2019-10-11 00:00:00 11 0 Calma -- -- 0 1006.6 -0.3 92
2019-10-10 23:00:00 11.4 0 Calma -- -- 0 1006.6 -0.3 90
2019-10-10 22:00:00 12.1 0 Calma -- -- 0 1007 0.2 87
2019-10-10 21:00:00 12.9 0 Calma 7 Este 0 1006.9 0.1 84
2019-10-10 20:00:00 14.5 0 Calma 10 Norte 0 1006.9 -0.3 76
2019-10-10 19:00:00 16.6 2 Norte 16 Norte 0 1006.8 -0.7 66
2019-10-10 18:00:00 17.4 8 Noroeste 22 Noroeste 0 1006.8 -1.1 62
2019-10-10 17:00:00 18.2 11 Norte 24 Norte 0 1007.2 -1.6 59
2019-10-10 16:00:00 19.2 11 Norte 18 Noroeste 0 1007.5 -2 56
2019-10-10 15:00:00 20.6 0 Calma 8 Sur 0 1007.9 -2.1 51
2019-10-10 14:00:00 19.2 4 Sudoeste 8 Oeste 0 1008.8 -1.8 53
2019-10-10 13:00:00 19 3 Sudeste 7 Sudeste 0 1009.5 -1.1 60
2019-10-10 12:00:00 15.9 4 Sudoeste 9 Sudoeste 0 1010 -0.1 73
2019-10-10 11:00:00 12.9 3 Sudoeste 11 Sudoeste 0 1010.6 1 92
2019-10-10 10:00:00 9.7 3 Sur 9 Sudoeste 0 1010.6 1.2 94
2019-10-10 09:00:00 9.6 0 Calma 15 Sur 0 1010.1 0.7 94
2019-10-10 08:00:00 9.2 4 Sudoeste 14 Sur 0 1009.6 0.3 93
2019-10-10 07:00:00 9.7 6 Sudoeste 14 Sudoeste 0 1009.4 0.8 93
2019-10-10 06:00:00 9.9 4 Sur 12 Sur 0 1009.4 -0.1 93
2019-10-10 05:00:00 10.4 4 Sudoeste 9 Sur 0 1009.3 -0.1 92
2019-10-10 04:00:00 11.1 0 Calma 7 Sudoeste 0 1008.6 -0.9 92
2019-10-10 03:00:00 11.3 3 Sudoeste 11 Sudoeste 0 1009.5 0 92
2019-10-10 02:00:00 11 0 Calma 6 Sur 0 1009.4 0.1 90
2019-10-10 01:00:00 11.9 0 Calma 7 Sudoeste 0 1009.5 0.1 89
2019-10-10 00:00:00 12.3 0 Calma 12 Sudoeste 0 1009.5 0.2 89
2019-10-09 23:00:00 12.2 0 Calma 5 Sur 0 1009.3 0.5 87
2019-10-09 22:00:00 12.4 0 Calma 8 Sur 0 1009.4 1.1 84
2019-10-09 21:00:00 12.8 0 Calma 6 Este 0 1009.3 1.3 79
2019-10-09 20:00:00 14 3 Este 6 Sudoeste 0 1008.8 1.1 69
2019-10-09 19:00:00 17 3 Oeste 22 Oeste 0 1008.3 0.6 56
2019-10-09 18:00:00 17.9 8 Oeste 24 Noroeste 0 1008 0.2 57
2019-10-09 17:00:00 18.4 12 Oeste 26 Noroeste 0 1007.7 -0.5 54
2019-10-09 16:00:00 18.1 10 Oeste 21 Oeste 0 1007.7 -1 60
2019-10-09 15:00:00 18.5 8 Noroeste 20 Noroeste 0 1007.8 -0.5 62
2019-10-09 14:00:00 17.9 6 Oeste 23 Oeste 0 1008.2 -0.1 66
2019-10-09 13:00:00 15.8 10 Oeste 30 Noroeste 0 1008.7 1.1 74
2019-10-09 12:00:00 16 0 Calma -- -- 0 1008.3 1.1 87
2019-10-09 11:00:00 14.8 0 Calma 7 Sudoeste 0 1008.3 1.3 94
2019-10-09 10:00:00 14 0 Calma -- -- 0 1007.6 1 95
2019-10-09 09:00:00 13.7 0 Calma -- -- 0 1007.2 0.9 95
2019-10-09 08:00:00 13.6 0 Calma -- -- 0 1007 1.4 95
2019-10-09 07:00:00 13.6 0 Calma -- -- 0.1 1006.6 1.6 95
2019-10-09 06:00:00 13.6 0 Calma -- -- 0 1006.3 0.8 95
2019-10-09 05:00:00 14.2 0 Calma -- -- 0.1 1005.6 -0.2 94
2019-10-09 04:00:00 14.2 0 Calma -- -- 0.1 1005 -1.1 94
2019-10-09 03:00:00 14.4 0 Calma -- -- 0 1005.5 -0.7 93
2019-10-09 02:00:00 14.5 0 Calma -- -- 0.1 1005.8 -0.5 93
2019-10-09 01:00:00 15 0 Calma 5 Sur 0.2 1006.1 -0.2 93
2019-10-09 00:00:00 15.3 3 Nordeste 8 Sudeste 0 1006.2 0.4 92
2019-10-08 23:00:00 15.6 5 Sudeste 8 Sudeste 0.4 1006.3 1.4 92
2019-10-08 22:00:00 16.1 0 Calma 16 Noroeste 0.7 1006.3 2 90
2019-10-08 21:00:00 17.6 4 Noroeste 15 Noroeste 0.1 1005.8 2.3 88
2019-10-08 20:00:00 19.2 6 Noroeste 18 Sudoeste 0 1004.9 2.1 79
2019-10-08 19:00:00 20.4 6 Noroeste 18 Norte 0 1004.3 1.6 70
2019-10-08 18:00:00 22.2 7 Noroeste 17 Norte 0 1003.5 1 59
2019-10-08 17:00:00 23.7 7 Norte 16 Norte 0 1002.8 -0.1 47
2019-10-08 16:00:00 23.7 8 Norte 17 Norte 0 1002.7 -0.6 44
2019-10-08 15:00:00 23.8 6 Norte 11 Norte 0 1002.5 -1.2 42
2019-10-08 14:00:00 23.8 3 Este 8 Nordeste 0 1002.9 -1.1 42
2019-10-08 13:00:00 20.7 0 Calma 6 Nordeste 0 1003.3 -1.1 49
2019-10-08 12:00:00 18.5 0 Calma 5 Nordeste 0 1003.7 -0.8 56
2019-10-08 11:00:00 15.4 0 Calma 6 Este 0 1004 -0.7 69
2019-10-08 10:00:00 12.5 0 Calma 12 Sudoeste 0 1004.4 -0.1 84
2019-10-08 09:00:00 9.7 5 Sudoeste 13 Sudoeste 0 1004.5 -0.3 91
2019-10-08 08:00:00 9.1 0 Calma 10 Sudoeste 0 1004.7 -0.6 92
2019-10-08 07:00:00 9.1 0 Calma -- -- 0 1004.5 -1.2 92
2019-10-08 06:00:00 9.4 2 Sur 8 Sudoeste 0 1004.8 -1.7 91
2019-10-08 05:00:00 9.8 0 Calma 9 Sudoeste 0 1005.3 -1 90
2019-10-08 04:00:00 10.3 2 Sur 13 Sudoeste 0 1005.7 -0.8 90
2019-10-08 03:00:00 10.7 4 Sur 11 Sur 0 1006.5 -0.2 90
2019-10-08 02:00:00 10.8 0 Calma 12 Sur 0 1006.3 -0.5 90
2019-10-08 01:00:00 11.4 0 Calma 12 Sudoeste 0 1006.5 -0.1 89
2019-10-08 00:00:00 12 0 Calma 10 Sudoeste 0 1006.7 0.4 89
2019-10-07 23:00:00 12.5 0 Calma 9 Sudoeste 0 1006.8 0.6 87
2019-10-07 22:00:00 13.5 0 Calma 11 Sudoeste 0 1006.6 0.6 85
2019-10-07 21:00:00 14.4 0 Calma -- -- 0 1006.3 0.1 80
2019-10-07 20:00:00 15.8 0 Calma 9 Este 0 1006.2 0.1 76
2019-10-07 19:00:00 18.1 6 Este 10 Nordeste 0 1006 -0.3 66
2019-10-07 18:00:00 19.7 4 Norte 11 Norte 0 1006.2 -0.2 62
2019-10-07 17:00:00 19.9 7 Norte 17 Norte 0 1006.1 -1.1 59
2019-10-07 16:00:00 20.5 11 Norte 19 Noroeste 0 1006.3 -1.7 55
2019-10-07 15:00:00 21.5 0 Calma -- -- 0 1006.4 -1.9 51
2019-10-07 14:00:00 20.1 0 Calma -- -- 0 1007.2 -1.2 58
2019-10-07 13:00:00 19 0 Calma -- -- 0 1008 0 65
2019-10-07 12:00:00 16.4 0 Calma -- -- 0 1008.3 0.1 89
2019-10-07 11:00:00 13.6 0 Calma -- -- 0 1008.4 0.4 96
2019-10-07 10:00:00 11.9 0 Calma -- -- 0 1008 0.6 96
2019-10-07 09:00:00 11.1 0 Calma -- -- 0 1008.2 1 96
2019-10-07 08:00:00 11 0 Calma -- -- 0 1008 0.5 96
2019-10-07 07:00:00 11.1 0 Calma -- -- 0 1007.4 -0.8 96
2019-10-07 06:00:00 11.4 0 Calma -- -- 0 1007.2 -1.6 96
2019-10-07 05:00:00 11.7 0 Calma -- -- 0 1007.5 -1.3 96
2019-10-07 04:00:00 12 0 Calma -- -- 0 1008.2 -1.1 95
2019-10-07 03:00:00 12.2 0 Calma -- -- 0 1008.8 -1 95
2019-10-07 02:00:00 12.1 0 Calma -- -- 0 1008.8 -0.7 95
2019-10-07 01:00:00 12.3 0 Calma 8 Sudoeste 0 1009.3 0.1 95
2019-10-07 00:00:00 12.7 0 Calma -- -- 0 1009.8 0.8 94
2019-10-06 23:00:00 13.2 0 Calma -- -- 0 1009.5 0.8 93
2019-10-06 22:00:00 13.6 0 Calma -- -- 0 1009.2 0.8 92
2019-10-06 21:00:00 14.5 0 Calma -- -- 0.1 1009 1.2 92
2019-10-06 20:00:00 15.4 0 Calma 4 Este 0 1008.7 1 90
2019-10-06 19:00:00 16.1 0 Calma 5 Este 0 1008.4 0.6 89
2019-10-06 18:00:00 16.2 4 Este 9 Este 0.6 1007.8 0.2 89
2019-10-06 17:00:00 16.3 3 Norte 11 Sudoeste 0.3 1007.7 -0.6 87
2019-10-06 16:00:00 17.2 6 Sudoeste 18 Sudoeste 0 1007.8 0.3 78
2019-10-06 15:00:00 17.1 5 Este 9 Este 0 1007.6 0.1 83
2019-10-06 14:00:00 16.1 5 Oeste 19 Oeste 0.4 1008.3 0.7 83
2019-10-06 13:00:00 17.3 8 Sudoeste 21 Sudoeste 0 1007.5 0.3 79
2019-10-06 12:00:00 15.5 0 Calma -- -- 0 1007.5 0.7 92
2019-10-06 11:00:00 14.6 0 Calma -- -- 0 1007.6 1.2 94
2019-10-06 10:00:00 13.7 0 Calma -- -- 0 1007.2 0.8 95
2019-10-06 09:00:00 12.9 0 Calma 4 Nordeste 0 1006.8 0.8 94
2019-10-06 08:00:00 12.7 0 Calma 6 Sudeste 0 1006.4 0.4 94
2019-10-06 07:00:00 12.6 0 Calma -- -- 0 1006.4 0.2 94
2019-10-06 06:00:00 12.4 0 Calma -- -- 0 1006 -0.4 93
2019-10-06 05:00:00 12 0 Calma -- -- 0 1006 -0.2 93
2019-10-06 04:00:00 12.2 0 Calma -- -- 0 1006.2 -0.2 92
2019-10-06 03:00:00 13 0 Calma 9 Este 0 1006.4 0.6 91
2019-10-06 02:00:00 14 0 Calma 5 Sudeste 0 1006.2 0.1 90
2019-10-06 01:00:00 13.5 0 Calma 4 Nordeste 0 1006.4 0.5 89
2019-10-06 00:00:00 14 0 Calma -- -- 0 1005.8 0 89
2019-10-05 23:00:00 15.2 0 Calma -- -- 0 1006.1 1 87
2019-10-05 22:00:00 15.7 0 Calma -- -- 0 1005.9 1.3 85
2019-10-05 21:00:00 16 0 Calma 6 Norte 0 1005.8 2 80
2019-10-05 20:00:00 16.4 3 Norte 10 Norte 0 1005.1 1.3 76
2019-10-05 19:00:00 17.1 5 Noroeste 13 Norte 0 1004.6 0.5 74
2019-10-05 18:00:00 17.8 7 Norte 17 Norte 0 1003.8 -0.3 71
2019-10-05 17:00:00 18.2 8 Noroeste 13 Noroeste 0 1003.8 -0.8 69
2019-10-05 16:00:00 17.9 8 Norte 16 Norte 0 1004.1 -0.5 71
2019-10-05 15:00:00 18.2 6 Norte 11 Norte 0 1004.1 -0.4 71
2019-10-05 14:00:00 17.7 8 Norte 16 Norte 0 1004.6 -0.3 71
2019-10-05 13:00:00 19.2 6 Nordeste 12 Nordeste 0 1004.6 -0.2 74
2019-10-05 12:00:00 18 0 Calma -- -- 0 1004.5 0.2 86
2019-10-05 11:00:00 15.5 0 Calma -- -- 0 1004.9 1 96
2019-10-05 10:00:00 14.3 3 Sudeste 9 Este 0 1004.8 0.8 96
2019-10-05 09:00:00 13.7 0 Calma -- -- 0 1004.3 0 96
2019-10-05 08:00:00 13.9 0 Calma -- -- 0 1003.9 -0.4 96
2019-10-05 07:00:00 14.3 0 Calma -- -- 0 1004 -0.6 96
2019-10-05 06:00:00 14.4 0 Calma -- -- 0 1004.3 -0.4 96
2019-10-05 05:00:00 14.4 0 Calma -- -- 0 1004.3 -0.6 96
2019-10-05 04:00:00 14.6 0 Calma -- -- 0.2 1004.6 -0.5 95
2019-10-05 03:00:00 14.5 0 Calma -- -- 0.1 1004.7 -1 95
2019-10-05 02:00:00 14.6 0 Calma -- -- 0.3 1004.9 -0.7 95
2019-10-05 01:00:00 14.6 0 Calma -- -- 0.1 1005.1 -0.4 95
2019-10-05 00:00:00 14.7 0 Calma -- -- 0.2 1005.7 0.5 94
2019-10-04 23:00:00 14.8 0 Calma -- -- 0.1 1005.6 0.6 94
2019-10-04 22:00:00 14.9 0 Calma -- -- 0 1005.5 1.1 94
2019-10-04 21:00:00 15.1 0 Calma -- -- 0 1005.2 1.1 94
2019-10-04 20:00:00 15.4 0 Calma -- -- 0 1005 0.9 94
2019-10-04 19:00:00 16.2 0 Calma -- -- 0 1004.4 -0.1 94
2019-10-04 18:00:00 15.8 0 Calma -- -- 0.4 1004.1 -0.5 94
2019-10-04 17:00:00 16.1 0 Calma 8 Norte 0.1 1004.1 -0.9 94
2019-10-04 16:00:00 16 5 Sudeste 12 Nordeste 0.4 1004.5 -1 94
2019-10-04 15:00:00 16 7 Norte 13 Noroeste 0.5 1004.6 -1.1 94
2019-10-04 14:00:00 16.2 0 Calma -- -- 0.5 1005 -0.4 93
2019-10-04 13:00:00 15.7 0 Calma 6 Norte 0 1005.5 0.5 92
2019-10-04 12:00:00 15.4 0 Calma -- -- 0.1 1005.7 1.2 92
2019-10-04 11:00:00 14.8 0 Calma 6 Oeste 0 1005.4 1.3 92
2019-10-04 10:00:00 14.4 0 Calma -- -- 0 1005 1.2 90
2019-10-04 09:00:00 14.2 0 Calma -- -- 0 1004.5 0.7 89
2019-10-04 08:00:00 14.2 0 Calma 9 Sudoeste 0 1004.1 0.2 87
2019-10-04 07:00:00 14 0 Calma 7 Sudoeste 0 1003.8 -0.2 86
2019-10-04 06:00:00 14.4 0 Calma 7 Sudoeste 0 1003.8 -0.7 86
2019-10-04 05:00:00 14.3 0 Calma 5 Sur 0 1003.9 -0.9 86
2019-10-04 04:00:00 14.3 0 Calma 12 Sudoeste 0 1004 -0.9 86
2019-10-04 03:00:00 14 0 Calma 8 Sudoeste 0 1004.5 -1.1 88
2019-10-04 02:00:00 13.5 3 Sudeste 11 Sur 0 1004.8 -0.9 89
2019-10-04 01:00:00 13.3 0 Calma 4 Este 0 1004.9 -0.6 89
2019-10-04 00:00:00 13.2 0 Calma 5 Oeste 0 1005.6 0.5 89
2019-10-03 23:00:00 12.8 0 Calma 5 Oeste 0 1005.7 1 87
2019-10-03 22:00:00 13.1 0 Calma 8 Oeste 0 1005.5 0.8 85
2019-10-03 21:00:00 13.9 0 Calma -- -- 0 1005.1 0.7 80
2019-10-03 20:00:00 15.6 0 Calma 6 Nordeste 0 1004.7 0.3 72
2019-10-03 19:00:00 18 5 Nordeste 12 Norte 0 1004.7 0.1 61
2019-10-03 18:00:00 19.2 7 Norte 13 Noroeste 0 1004.4 -0.3 59
2019-10-03 17:00:00 20.1 6 Norte 15 Norte 0 1004.4 -0.4 58
2019-10-03 16:00:00 20.1 7 Norte 19 Noroeste 0 1004.6 -0.4 59
2019-10-03 15:00:00 21.8 0 Calma 9 Norte 0 1004.7 -0.7 55
2019-10-03 14:00:00 20.2 3 Nordeste 9 Nordeste 0 1004.8 -1.3 57
2019-10-03 13:00:00 19.2 0 Calma 11 Sudoeste 0 1005 -1.1 66
2019-10-03 12:00:00 16.6 0 Calma 10 Este 0 1005.4 -0.4 85
2019-10-03 11:00:00 13.4 0 Calma 10 Este 0 1006.1 0.5 95
2019-10-03 10:00:00 12.7 0 Calma 10 Sudoeste 0 1006.1 0.7 95
2019-10-03 09:00:00 12.4 0 Calma 11 Oeste 0 1005.8 0 95
2019-10-03 08:00:00 12.4 0 Calma 8 Sur 0 1005.6 -0.3 95
2019-10-03 07:00:00 12.6 2 Sudeste 9 Sudeste 0.1 1005.4 -0.9 96
2019-10-03 06:00:00 12.6 0 Calma -- -- 0 1005.8 -1.5 95
2019-10-03 05:00:00 12.7 0 Calma -- -- 0 1005.9 -1.6 95
2019-10-03 04:00:00 12.4 0 Calma -- -- 0 1006.3 -1.6 95
2019-10-03 03:00:00 12.4 0 Calma -- -- 0 1007.3 -1.1 95
2019-10-03 02:00:00 12 0 Calma -- -- 0 1007.5 -1.3 94
2019-10-03 01:00:00 12.3 0 Calma 5 Sudoeste 0 1007.9 -0.7 93
2019-10-03 00:00:00 13.4 0 Calma 6 Sudoeste 0 1008.4 0.2 93
2019-10-02 23:00:00 14.1 0 Calma -- -- 0 1008.8 1.1 92
2019-10-02 22:00:00 14.3 0 Calma 8 Sudoeste 0 1008.6 1.4 91
2019-10-02 21:00:00 14.9 4 Sudoeste 9 Sudoeste 0 1008.2 1.7 89
2019-10-02 20:00:00 15.7 0 Calma 6 Sudoeste 0 1007.7 1.2 86
2019-10-02 19:00:00 16.4 0 Calma 11 Noroeste 0 1007.2 0.8 82
2019-10-02 18:00:00 16.2 0 Calma 12 Sudoeste 0.2 1006.5 0.1 85
2019-10-02 17:00:00 16.6 0 Calma 14 Oeste 0.1 1006.5 0.3 85
2019-10-02 16:00:00 16.7 5 Oeste 13 Sudoeste 0.4 1006.4 0.1 86
2019-10-02 15:00:00 15.9 0 Calma 13 Sudoeste 1.4 1006.4 0.5 89
2019-10-02 14:00:00 16 4 Este 10 Oeste 0.6 1006.2 1.1 88
2019-10-02 13:00:00 16.2 5 Sudoeste 16 Sudoeste 0.9 1006.3 2 88
2019-10-02 12:00:00 15.4 4 Noroeste 18 Sudoeste 0.1 1005.9 2.5 88
2019-10-02 11:00:00 15.1 2 Oeste 9 Sudoeste 0.1 1005.1 2.4 93
2019-10-02 10:00:00 14.2 0 Calma 9 Sudoeste 0.6 1004.3 1.7 93
2019-10-02 09:00:00 14 3 Sudoeste 19 Sudoeste 0.8 1003.4 1 92
2019-10-02 08:00:00 13.9 8 Sudoeste 20 Sudoeste 2.3 1002.7 0.6 92
2019-10-02 07:00:00 14.1 7 Sudoeste 17 Sudoeste 1.3 1002.6 -0.1 90
2019-10-02 06:00:00 14.1 4 Sudoeste 22 Sudoeste 2 1002.4 0 88
2019-10-02 05:00:00 14.4 8 Sudoeste 32 Sudoeste 0.8 1002.1 0.2 85
2019-10-02 04:00:00 15.4 3 Sudoeste 25 Oeste 1.5 1002.7 0.2 76
2019-10-02 03:00:00 16.8 8 Sudoeste 36 Sudoeste 0 1002.4 0.3 69
2019-10-02 02:00:00 16.8 3 Sudoeste 23 Oeste 0 1001.9 -0.1 70
2019-10-02 01:00:00 16.9 5 Oeste 23 Sudoeste 0 1002.5 0.9 72
2019-10-02 00:00:00 17.1 8 Sudoeste 24 Oeste 0 1002.1 1 76
2019-10-01 23:00:00 17.2 5 Oeste 24 Oeste 0 1002 1.4 77
2019-10-01 22:00:00 17.8 5 Oeste 21 Oeste 0 1001.6 1.1 71
2019-10-01 21:00:00 17.8 6 Sudoeste 24 Sudoeste 0 1001.1 0.8 70
2019-10-01 20:00:00 18.5 6 Oeste 21 Sudoeste 0 1000.6 1 68
2019-10-01 19:00:00 18.9 5 Oeste 18 Sudoeste 0 1000.5 1.1 66
2019-10-01 18:00:00 19.2 8 Oeste 19 Oeste 0 1000.3 0.9 67
2019-10-01 17:00:00 19.8 5 Noroeste 14 Oeste 0 999.6 -0.2 66
2019-10-01 16:00:00 20.9 5 Noroeste 19 Oeste 0 999.4 -0.5 62
2019-10-01 15:00:00 21.4 6 Oeste 24 Oeste 0 999.4 -0.5 61
2019-10-01 14:00:00 22.5 5 Oeste 18 Norte 0 999.8 0 63
2019-10-01 13:00:00 21.4 7 Noroeste 18 Noroeste 0 999.9 0.6 63
2019-10-01 12:00:00 21.6 4 Este 12 Sudoeste 0 999.9 1.2 71
2019-10-01 11:00:00 20.7 7 Sudoeste 15 Sudoeste 0 999.8 1.8 77
2019-10-01 10:00:00 17.6 0 Calma 12 Sudoeste 0 999.3 2.6 95
2019-10-01 09:00:00 14.5 0 Calma 9 Sur 0 998.7 2 95
2019-10-01 08:00:00 14.3 0 Calma 14 Noroeste 0 998 0.7 95
2019-10-01 07:00:00 14.6 0 Calma 4 Sudoeste 0 996.7 -1.7 95
2019-10-01 06:00:00 14.6 0 Calma 9 Sudoeste 0 996.7 -2.7 95
2019-10-01 05:00:00 14.8 0 Calma 12 Sudoeste 0 997.3 -2 95
2019-10-01 04:00:00 14.9 0 Calma 7 Sudoeste 0 998.4 -1 94
2019-10-01 03:00:00 15.5 0 Calma -- -- 0 999.4 -0.6 93
2019-10-01 02:00:00 15.6 0 Calma -- -- 0 999.3 -0.2 93
2019-10-01 01:00:00 15.9 0 Calma -- -- 0 999.4 -0.4 92
2019-10-01 00:00:00 16.6 0 Calma -- -- 0 1000 0.3 90
2019-09-30 23:00:00 17.1 0 Calma -- -- 0 999.5 0.1 88
2019-09-30 22:00:00 17.9 0 Calma -- -- 0 999.8 0.3 85
2019-09-30 21:00:00 18.9 0 Calma 6 Este 0 999.7 0.2 80
2019-09-30 20:00:00 20.6 4 Este 9 Nordeste 0 999.4 -0.7 71
2019-09-30 19:00:00 22.7 5 Norte 15 Norte 0 999.5 -1.2 62
2019-09-30 18:00:00 23.7 7 Norte 14 Norte 0 999.5 -1.8 60
2019-09-30 17:00:00 24.2 9 Norte 17 Norte 0 1000.1 -2 60
2019-09-30 16:00:00 24.9 9 Norte 18 Norte 0 1000.7 -2.5 58
2019-09-30 15:00:00 24.5 8 Norte 13 Nordeste 0 1001.3 -2.4 58
2019-09-30 14:00:00 25.8 0 Calma 9 Nordeste 0 1002.1 -2.1 55
2019-09-30 13:00:00 24.4 3 Nordeste 8 Nordeste 0 1003.2 -1.1 59
2019-09-30 12:00:00 23 0 Calma 6 Nordeste 0 1003.7 -0.3 66
2019-09-30 11:00:00 19.8 0 Calma 8 Sudoeste 0 1004.2 0.2 75
2019-09-30 10:00:00 16.7 0 Calma 15 Sudoeste 0 1004.3 0.8 83
2019-09-30 09:00:00 14.8 6 Sudoeste 14 Sudoeste 0 1004 0.2 86
2019-09-30 08:00:00 14.6 8 Sudoeste 15 Sudoeste 0 1004 0.1 84
2019-09-30 07:00:00 15.2 7 Sudoeste 17 Sudoeste 0 1003.5 -0.8 83
2019-09-30 06:00:00 15.8 5 Sudoeste 11 Sudoeste 0 1003.8 -1.1 80
2019-09-30 05:00:00 16.1 4 Sudoeste 9 Sur 0 1003.9 -1 80
2019-09-30 04:00:00 16.1 0 Calma 9 Sudoeste 0 1004.3 -0.9 79
2019-09-30 03:00:00 15.9 0 Calma 10 Sudoeste 0 1004.9 -0.4 79
2019-09-30 02:00:00 16.5 6 Sudoeste 11 Sudoeste 0 1004.9 -0.4 77
2019-09-30 01:00:00 16.8 3 Sudoeste 8 Sudoeste 0 1005.2 0.2 76
2019-09-30 00:00:00 16.7 0 Calma 8 Sudoeste 0 1005.3 1.2 76
2019-09-29 23:00:00 16.6 2 Sudoeste 6 Sudoeste 0 1005.3 2.3 76
2019-09-29 22:00:00 16.4 0 Calma -- -- 0 1005 2.3 72
2019-09-29 21:00:00 17 0 Calma 5 Sudeste 0 1004.1 1.9 65
2019-09-29 20:00:00 18.7 0 Calma 8 Nordeste 0 1003 1.5 53
2019-09-29 19:00:00 22.3 0 Calma 17 Noroeste 0 1002.7 1.5 39
2019-09-29 18:00:00 23.6 10 Norte 24 Norte 0 1002.2 1.3 34
2019-09-29 17:00:00 24.7 9 Norte 22 Norte 0 1001.5 0 34
2019-09-29 16:00:00 25.4 12 Noroeste 25 Norte 0 1001.2 0 34
2019-09-29 15:00:00 26.8 9 Norte 22 Norte 0 1000.9 -0.4 36
2019-09-29 14:00:00 28.7 8 Sudoeste 28 Sudoeste 0 1001.5 0.5 31
2019-09-29 13:00:00 27.7 9 Sur 31 Sur 0 1001.2 0.7 34
2019-09-29 12:00:00 26.1 11 Sur 32 Sur 0 1001.3 0.9 35
2019-09-29 11:00:00 24.4 11 Sur 30 Sudeste 0 1001 0.8 38
2019-09-29 10:00:00 19.4 10 Sudoeste 28 Sudoeste 0 1000.5 0.3 56
2019-09-29 09:00:00 13.9 13 Sudoeste 34 Oeste 0 1000.4 -0.2 85
2019-09-29 08:00:00 13 13 Sudoeste 27 Oeste 0 1000.2 -0.6 92
2019-09-29 07:00:00 13.1 11 Sudoeste 24 Sudoeste 0 1000.2 -1 96
2019-09-29 06:00:00 13.1 3 Sudoeste 21 Sudoeste 0 1000.6 -1 96
2019-09-29 05:00:00 13.1 3 Sudoeste 14 Sudoeste 0 1000.8 -1.1 96
2019-09-29 04:00:00 13.2 0 Calma 12 Sudoeste 0 1001.2 -1.2 95
2019-09-29 03:00:00 13.5 0 Calma 9 Sudoeste 0 1001.6 -1.3 95
2019-09-29 02:00:00 13 0 Calma 5 Este 0 1001.9 -1.7 94
2019-09-29 01:00:00 13.4 0 Calma 8 Nordeste 0 1002.4 -1.3 93
2019-09-29 00:00:00 13.8 0 Calma -- -- 0 1002.9 -0.9 92
2019-09-28 23:00:00 14.5 0 Calma -- -- 0 1003.6 0.2 90
2019-09-28 22:00:00 15.3 0 Calma -- -- 0 1003.7 0.2 87
2019-09-28 21:00:00 16.3 0 Calma 8 Nordeste 0 1003.8 0.5 84
2019-09-28 20:00:00 17.7 3 Nordeste 17 Norte 0 1003.4 -0.6 78
2019-09-28 19:00:00 18.7 9 Norte 20 Norte 0 1003.5 -1.2 75
2019-09-28 18:00:00 19.9 7 Norte 19 Noroeste 0 1003.3 -2.3 72
2019-09-28 17:00:00 19.9 12 Norte 21 Norte 0 1004 -2.2 71
2019-09-28 16:00:00 20.2 12 Norte 23 Norte 0 1004.7 -2.6 68
2019-09-28 15:00:00 20.6 11 Norte 21 Noroeste 0 1005.6 -2.1 65
2019-09-28 14:00:00 21.7 7 Norte 14 Norte 0 1006.2 -1.9 61
2019-09-28 13:00:00 21.1 3 Sudeste 8 Sur 0 1007.3 -0.9 65
2019-09-28 12:00:00 19.4 4 Sudoeste 8 Sudoeste 0 1007.7 0 72
2019-09-28 11:00:00 17.3 0 Calma -- -- 0 1008.1 0.5 83
2019-09-28 10:00:00 15.7 0 Calma -- -- 0 1008.2 0.4 94
2019-09-28 09:00:00 15 0 Calma -- -- 0 1007.7 -0.3 94
2019-09-28 08:00:00 14.9 0 Calma -- -- 0 1007.6 -0.5 94
2019-09-28 07:00:00 15 0 Calma -- -- 0 1007.8 -0.4 93
2019-09-28 06:00:00 15 0 Calma -- -- 0 1008 -0.2 93
2019-09-28 05:00:00 15.1 0 Calma -- -- 0 1008.1 -0.1 93
2019-09-28 04:00:00 15.1 0 Calma -- -- 0 1008.2 0 92
2019-09-28 03:00:00 15.1 0 Calma 10 Sudoeste 0 1008.2 -0.2 92
2019-09-28 02:00:00 15.2 6 Sudoeste 13 Sudoeste 0 1008.2 -0.1 92
2019-09-28 01:00:00 15.4 0 Calma 0 Calma 0 1008.2 0.1 92
2019-09-28 00:00:00 15.7 0 Calma 4 Oeste 0 1008.4 1.5 91
2019-09-27 23:00:00 15.9 0 Calma 10 Este 0 1008.3 2 89
2019-09-27 22:00:00 16.5 3 Nordeste 16 Noroeste 0 1008.1 2.3 86
2019-09-27 21:00:00 18.2 0 Calma 13 Noroeste 0 1006.9 2.3 77
2019-09-27 20:00:00 18.5 4 Noroeste 18 Nordeste 0 1006.3 1.8 77
2019-09-27 19:00:00 18.7 11 Norte 22 Nordeste 0 1005.8 1.2 74
2019-09-27 18:00:00 21 8 Norte 15 Norte 0 1004.6 -0.3 61
2019-09-27 17:00:00 21.2 8 Norte 22 Noroeste 0 1004.5 -0.7 63
2019-09-27 16:00:00 20.9 14 Norte 22 Norte 0 1004.6 -0.7 65
2019-09-27 15:00:00 21.5 12 Norte 21 Norte 0 1004.9 -0.7 64
2019-09-27 14:00:00 22.1 7 Norte 19 Norte 0 1005.2 -0.4 64
2019-09-27 13:00:00 21.2 14 Norte 21 Norte 0 1005.3 -0.1 59
2019-09-27 12:00:00 20.9 2 Sudeste 7 Sudeste 0 1005.6 0.3 67
2019-09-27 11:00:00 18.4 0 Calma 6 Sudeste 0 1005.6 0.4 83
2019-09-27 10:00:00 15.7 0 Calma -- -- 0 1005.4 0.4 95
2019-09-27 09:00:00 13.2 0 Calma 9 Sudoeste 0 1005.3 0.1 95
2019-09-27 08:00:00 12.1 0 Calma -- -- 0 1005.2 -0.1 95
2019-09-27 07:00:00 12.6 0 Calma -- -- 0 1005 -0.1 94
2019-09-27 06:00:00 12.9 0 Calma -- -- 0 1005.2 -0.2 93
2019-09-27 05:00:00 13.6 0 Calma -- -- 0 1005.3 -0.1 92
2019-09-27 04:00:00 14.2 0 Calma -- -- 0 1005.1 -0.2 92
2019-09-27 03:00:00 15.3 0 Calma -- -- 0 1005.4 0.5 91
2019-09-27 02:00:00 15.2 0 Calma 5 Nordeste 0 1005.4 0.4 90
2019-09-27 01:00:00 14.7 3 Nordeste 8 Nordeste 0 1005.3 0 88
2019-09-27 00:00:00 16.1 0 Calma -- -- 0 1004.9 -0.2 85
2019-09-26 23:00:00 17.5 0 Calma 8 Norte 0 1005 0.3 82
2019-09-26 22:00:00 17.8 3 Norte 10 Norte 0 1005.3 0.9 78
2019-09-26 21:00:00 18 4 Norte 11 Noroeste 0 1005.1 0.9 78
2019-09-26 20:00:00 18 6 Norte 14 Noroeste 0 1004.7 0.7 77
2019-09-26 19:00:00 18.2 8 Norte 20 Norte 0 1004.4 0.5 75
2019-09-26 18:00:00 18.9 12 Norte 23 Norte 0 1004.2 0 71
2019-09-26 17:00:00 19.9 11 Norte 23 Norte 0 1004 -0.7 68
2019-09-26 16:00:00 20.6 10 Norte 19 Norte 0 1003.9 -1 65
2019-09-26 15:00:00 20.6 10 Norte 21 Noroeste 0 1004.2 -1.1 64
2019-09-26 14:00:00 21 10 Norte 18 Noroeste 0 1004.7 -0.7 62
2019-09-26 13:00:00 21.4 3 Norte 8 Norte 0 1004.9 -0.5 59
2019-09-26 12:00:00 20 2 Este 7 Nordeste 0 1005.3 0.2 71
2019-09-26 11:00:00 16.7 0 Calma -- -- 0 1005.4 0.4 92
2019-09-26 10:00:00 14.1 0 Calma -- -- 0 1005.4 0.5 95
2019-09-26 09:00:00 12.9 0 Calma 5 Sudoeste 0 1005.1 0.5 95
2019-09-26 08:00:00 12.5 2 Sur 6 Sur 0 1005 0.4 95
2019-09-26 07:00:00 12.4 0 Calma -- -- 0 1004.9 0.2 94
2019-09-26 06:00:00 12.5 0 Calma -- -- 0 1004.6 -0.7 93
2019-09-26 05:00:00 12.8 0 Calma -- -- 0 1004.6 -0.7 92
2019-09-26 04:00:00 13.5 0 Calma 4 Sudoeste 0 1004.7 -0.5 91
2019-09-26 03:00:00 14 0 Calma 9 Sudoeste 0 1005.3 0.3 90
2019-09-26 02:00:00 14.3 0 Calma 8 Sudoeste 0 1005.3 0.5 88
2019-09-26 01:00:00 15.1 0 Calma -- -- 0 1005.2 0.5 86
2019-09-26 00:00:00 16.1 0 Calma -- -- 0 1005 0.6 83
2019-09-25 23:00:00 16.5 0 Calma -- -- 0 1004.8 0.7 83
2019-09-25 22:00:00 16.7 0 Calma -- -- 0 1004.7 0.8 79
2019-09-25 21:00:00 17.5 0 Calma 8 Norte 0 1004.4 0.8 74
2019-09-25 20:00:00 18.1 2 Norte 10 Noroeste 0 1004.1 0.5 68
2019-09-25 19:00:00 18.9 4 Norte 13 Noroeste 0 1003.9 0.2 61
2019-09-25 18:00:00 19.7 6 Noroeste 14 Noroeste 0 1003.6 -0.2 60
2019-09-25 17:00:00 19.9 7 Norte 14 Norte 0 1003.6 -0.6 59
2019-09-25 16:00:00 20.4 8 Norte 15 Norte 0 1003.7 -0.9 56
2019-09-25 15:00:00 20.5 3 Este 9 Este 0 1003.8 -1 54
2019-09-25 14:00:00 20.5 0 Calma 13 Oeste 0 1004.2 -0.6 53
2019-09-25 13:00:00 20.5 8 Sudoeste 19 Sudoeste 0 1004.6 0.1 54
2019-09-25 12:00:00 20 7 Sur 21 Sudoeste 0 1004.8 0.7 58
2019-09-25 11:00:00 17.6 10 Sudoeste 22 Sur 0 1004.8 0.8 67
2019-09-25 10:00:00 15.2 6 Sudoeste 19 Sudoeste 0 1004.5 0.9 92
2019-09-25 09:00:00 13.8 3 Oeste 22 Sudoeste 0 1004.1 0.7 94
2019-09-25 08:00:00 13.2 0 Calma -- -- 0 1004 0.8 94
2019-09-25 07:00:00 13.8 0 Calma -- -- 0 1003.6 0.1 94
2019-09-25 06:00:00 14.3 0 Calma 6 Oeste 0 1003.4 -0.4 94
2019-09-25 05:00:00 14.6 0 Calma 0 Calma 0 1003.2 -0.7 93
2019-09-25 04:00:00 14.8 0 Calma 5 Sudeste 0.1 1003.5 -0.5 93
2019-09-25 03:00:00 15 0 Calma 5 Sudoeste 0 1003.8 -0.6 93
2019-09-25 02:00:00 15 0 Calma 6 Este 0 1003.9 -0.5 92
2019-09-25 01:00:00 15.3 2 Sudoeste 6 Sudeste 0.1 1004 -0.1 92
2019-09-25 00:00:00 15.5 0 Calma 8 Nordeste 1.1 1004.4 0.9 91
2019-09-24 23:00:00 15.9 2 Sudoeste 6 Sudoeste 0.1 1004.4 1.7 89
2019-09-24 22:00:00 16.2 3 Sur 11 Sudoeste 0.5 1004.1 2 83
2019-09-24 21:00:00 17.9 4 Sudoeste 15 Noroeste 0 1003.5 1.5 72
2019-09-24 20:00:00 18.8 3 Oeste 11 Noroeste 0 1002.7 0.9 67
2019-09-24 19:00:00 19.3 4 Norte 9 Nordeste 0 1002.1 0.4 68
2019-09-24 18:00:00 19.7 4 Norte 16 Norte 0 1002 0.3 67
2019-09-24 17:00:00 20.6 3 Oeste 18 Noroeste 0 1001.8 1 66
2019-09-24 16:00:00 20.5 8 Noroeste 20 Noroeste 0 1001.7 1 68
2019-09-24 15:00:00 20.3 5 Nordeste 25 Norte 0 1001.7 0.8 72
2019-09-24 14:00:00 24.4 5 Este 24 Nordeste 0 1000.8 0 49
2019-09-24 13:00:00 24.5 0 Calma 24 Sudeste 0 1000.7 0.5 48
2019-09-24 12:00:00 23.8 5 Sudeste 36 Sudoeste 0 1000.9 0.8 47
2019-09-24 11:00:00 22.1 8 Sur 37 Sudeste 0 1000.8 1.6 48
2019-09-24 10:00:00 21.2 3 Sudeste 30 Este 0 1000.2 1.4 47
2019-09-24 09:00:00 21.5 10 Sur 40 Sur 0 1000.1 2 47
2019-09-24 08:00:00 22.3 18 Sur 40 Sudeste 0 999.2 0.8 45
2019-09-24 07:00:00 22.3 16 Sur 51 Sur 0 998.8 0.5 44
2019-09-24 06:00:00 22.9 15 Sur 54 Sudeste 0 998.1 -1.4 42
2019-09-24 05:00:00 22.6 18 Sur 57 Sudoeste 0 998.4 -1.9 43
2019-09-24 04:00:00 22.6 9 Sur 47 Sudoeste 0 998.3 -3.2 44
2019-09-24 03:00:00 21.7 12 Sur 32 Sudoeste 0 999.5 -3.2 49
2019-09-24 02:00:00 16 0 Calma 14 Sudoeste 0 1000.3 -2.6 87
2019-09-24 01:00:00 16.5 0 Calma 6 Noroeste 0 1001.5 -1.2 86
2019-09-24 00:00:00 16.7 0 Calma -- -- 0 1002.7 -0.3 84
2019-09-23 23:00:00 16.8 0 Calma 5 Este 0 1002.9 0.4 82
2019-09-23 22:00:00 17.4 0 Calma 6 Este 0 1002.7 0.2 77
2019-09-23 21:00:00 18.2 0 Calma 12 Sudoeste 0 1003 0.7 71
2019-09-23 20:00:00 19.7 6 Sudoeste 14 Sudoeste 0 1002.5 0.3 60
2019-09-23 19:00:00 22 3 Sur 22 Sudoeste 0 1002.5 0 47
2019-09-23 18:00:00 22.6 10 Sur 30 Sudoeste 0 1002.3 -0.5 44
2019-09-23 17:00:00 23 6 Sur 21 Sudoeste 0 1002.2 -0.7 44
2019-09-23 16:00:00 22.4 7 Sur 23 Sudoeste 0 1002.5 -0.9 44
2019-09-23 15:00:00 22.4 5 Sur 30 Sudoeste 0 1002.8 -1.4 46
2019-09-23 14:00:00 21.6 9 Sur 25 Sur 0 1002.9 -1.5 47
2019-09-23 13:00:00 20.8 10 Sudeste 35 Sur 0 1003.4 -1.1 51
2019-09-23 12:00:00 19.4 4 Noroeste 11 Sudoeste 0 1004.2 -0.2 61
2019-09-23 11:00:00 18 3 Sudoeste 22 Sudoeste 0 1004.4 -0.2 67
2019-09-23 10:00:00 15 10 Sudoeste 29 Sudoeste 0 1004.5 0.2 95
2019-09-23 09:00:00 12.5 0 Calma -- -- 0 1004.4 -0.1 95
2019-09-23 08:00:00 12.1 0 Calma -- -- 0 1004.6 0.2 95
2019-09-23 07:00:00 11.9 0 Calma -- -- 0.1 1004.3 0.2 95
2019-09-23 06:00:00 12.1 0 Calma -- -- 0 1004.5 0.2 95
2019-09-23 05:00:00 12.3 0 Calma -- -- 0 1004.4 0.1 95
2019-09-23 04:00:00 12.1 0 Calma -- -- 0 1004.1 -0.2 95
2019-09-23 03:00:00 12.5 0 Calma -- -- 0 1004.3 0.2 94
2019-09-23 02:00:00 13 0 Calma -- -- 0 1004.3 0.3 93
2019-09-23 01:00:00 13.4 0 Calma -- -- 0 1004.3 0.7 92
2019-09-23 00:00:00 14.2 0 Calma 6 Sudoeste 0 1004.1 1.2 92
2019-09-22 23:00:00 15 0 Calma 5 Sur 0 1004 1.9 91
2019-09-22 22:00:00 15.5 2 Sudoeste 11 Sudoeste 0 1003.6 1.9 90
2019-09-22 21:00:00 15.6 0 Calma 11 Este 0.1 1002.9 1.9 88
2019-09-22 20:00:00 16.7 2 Sudeste 12 Norte 1.1 1002.1 1.9 76
2019-09-22 19:00:00 18.5 4 Nordeste 20 Norte 0 1001.7 1.6 65
2019-09-22 18:00:00 19.1 12 Nordeste 22 Nordeste 0 1001 1.5 60
2019-09-22 17:00:00 19.9 13 Norte 22 Norte 0 1000.2 0.9 59
2019-09-22 16:00:00 19.5 7 Norte 18 Norte 0 1000.1 0.9 64
2019-09-22 15:00:00 21.1 4 Noroeste 16 Noroeste 0 999.5 0.6 59
2019-09-22 14:00:00 20.2 6 Noroeste 13 Sur 0 999.3 0.3 61
2019-09-22 13:00:00 20.5 7 Sur 17 Sur 0 999.2 0.7 59
2019-09-22 12:00:00 19.7 2 Nordeste 8 Sudeste 0 998.9 1 76
2019-09-22 11:00:00 17.5 0 Calma 4 Noroeste 0 999 2.1 92
2019-09-22 10:00:00 15.7 0 Calma 11 Sudeste 0 998.5 2.2 93
2019-09-22 09:00:00 15 7 Sudeste 14 Norte 0 997.9 2.5 93
2019-09-22 08:00:00 14.8 6 Norte 13 Norte 3.4 996.9 1.7 93
2019-09-22 07:00:00 16 0 Calma 8 Este 7.7 996.3 2.2 92
2019-09-22 06:00:00 16.1 6 Este 14 Nordeste 2.6 995.4 1.6 92
2019-09-22 05:00:00 17.4 0 Calma 21 Noroeste 3.3 995.2 2.1 86
2019-09-22 04:00:00 20.2 8 Norte 18 Nordeste 0 994.1 2 67
2019-09-22 03:00:00 22 0 Calma 21 Sudoeste 0 993.8 1.5 57
2019-09-22 02:00:00 23.6 8 Sudoeste 50 Sudoeste 0 993.1 0.5 51
2019-09-22 01:00:00 24 13 Sudoeste 44 Sudoeste 0 992.1 -0.6 50
2019-09-22 00:00:00 22.7 6 Sur 25 Oeste 0 992.3 -0.7 53
2019-09-21 23:00:00 23.2 7 Sudoeste 27 Sudoeste 0 992.6 0.4 53
2019-09-21 22:00:00 22.7 3 Sudoeste 15 Oeste 0 992.7 0.7 53
2019-09-21 21:00:00 24.1 3 Sudoeste 31 Sudoeste 0 993 0.4 50
2019-09-21 20:00:00 25.1 14 Sudoeste 36 Sudoeste 0 992.2 -0.9 50
2019-09-21 19:00:00 25.4 7 Sudoeste 26 Sudoeste 0 992 -1.5 50
2019-09-21 18:00:00 25.4 6 Sudoeste 19 Sudoeste 0 992.6 -1.4 50
2019-09-21 17:00:00 25.5 9 Sudoeste 19 Sudoeste 0 993.1 -1.4 49
2019-09-21 16:00:00 25.6 2 Sudeste 24 Sudoeste 0 993.5 -1.4 49
2019-09-21 15:00:00 25.6 0 Calma 28 Oeste 0 994 -1.4 50
2019-09-21 14:00:00 25.3 5 Sudoeste 32 Sudoeste 0 994.5 -1.2 50
2019-09-21 13:00:00 25.1 9 Sudoeste -- -- -- 994.9 -0.9 50
2019-09-21 12:00:00 24.5 10 Este 29 Este 0 995.4 -0.5 56
2019-09-21 11:00:00 23.9 5 Este 22 Este 0 995.7 -0.2 58
2019-09-21 10:00:00 22.3 5 Noroeste 46 Este 0 995.8 -0.6 62
2019-09-21 09:00:00 21.1 8 Este 50 Este 0 995.9 -0.2 64
2019-09-21 08:00:00 21.1 18 Este 45 Este 0 995.9 -0.4 62
2019-09-21 07:00:00 20.4 4 Noroeste 19 Oeste 0 996.4 0.2 64
2019-09-21 06:00:00 20.5 3 Este 51 Este 0 996.1 -1.2 63
2019-09-21 05:00:00 20.4 18 Este 41 Este 0.1 996.3 -0.2 62
2019-09-21 04:00:00 21.1 21 Este 50 Este 0 996.2 -0.3 59
2019-09-21 03:00:00 21.8 5 Norte 38 Sudoeste 0 997.3 -0.7 56
2019-09-21 02:00:00 22.4 0 Calma 23 Este 0 996.5 -1.8 55
2019-09-21 01:00:00 21.7 3 Sudeste 28 Nordeste 0 996.5 -1.4 57
2019-09-21 00:00:00 22.1 0 Calma 26 Oeste 0 998 0.7 56
2019-09-20 23:00:00 23.6 10 Sudoeste 37 Sudoeste 0 998.3 1.5 53
2019-09-20 22:00:00 25.2 3 Oeste 24 Sudoeste 0 997.9 1 51
2019-09-20 21:00:00 23.6 3 Sur 12 Sudoeste 0 997.3 0.3 59
2019-09-20 20:00:00 24.2 0 Calma 8 Sudoeste 0 996.8 -0.3 56
2019-09-20 19:00:00 25.8 0 Calma 14 Este 0 996.9 -0.7 51
2019-09-20 18:00:00 27.4 11 Este 29 Este 0 997 -1.4 43
2019-09-20 17:00:00 27.9 13 Este 27 Este 0 997.1 -1.8 42
2019-09-20 16:00:00 29.4 3 Nordeste 20 Este 0 997.6 -2 40
2019-09-20 15:00:00 28.4 2 Noroeste 32 Este 0 998.4 -1.5 42
2019-09-20 14:00:00 27.8 8 Este 35 Este 0 998.9 -1.5 43
2019-09-20 13:00:00 26.7 21 Este 55 Este 0 999.6 -0.9 44
2019-09-20 12:00:00 25.6 27 Este 49 Este 0 999.9 -0.3 47
2019-09-20 11:00:00 24.5 26 Sudeste 47 Sudeste 0 1000.4 0 49
2019-09-20 10:00:00 24.1 13 Sudeste 35 Sudeste 0 1000.5 0 51
2019-09-20 09:00:00 20.8 9 Sudeste 42 Este 0 1000.2 -0.7 75
2019-09-20 08:00:00 14.1 2 Noroeste 12 Este 0 1000.4 -0.8 95
2019-09-20 07:00:00 13.8 0 Calma -- -- 0 1000.5 -1.1 95
2019-09-20 06:00:00 14 0 Calma -- -- 0 1000.9 -1.5 95
2019-09-20 05:00:00 13.8 0 Calma 7 Sudeste 0 1001.2 -1.5 95
2019-09-20 04:00:00 13.9 0 Calma 4 Noroeste 0 1001.6 -1.3 94
2019-09-20 03:00:00 14.3 0 Calma -- -- 0 1002.4 -1.1 93
2019-09-20 02:00:00 14.5 0 Calma -- -- 0 1002.7 -1.2 92
2019-09-20 01:00:00 15 0 Calma -- -- 0 1002.9 -0.9 92
2019-09-20 00:00:00 15.2 0 Calma -- -- 0 1003.5 0.1 90
2019-09-19 23:00:00 15.6 0 Calma -- -- 0 1003.9 0.9 88
2019-09-19 22:00:00 16.2 0 Calma -- -- 0 1003.8 0.8 85
2019-09-19 21:00:00 17.1 0 Calma 9 Norte 0 1003.4 0.7 80
2019-09-19 20:00:00 18 5 Norte 17 Norte 0 1003 0.2 74
2019-09-19 19:00:00 19 8 Norte 17 Noroeste 0 1003 -0.2 71
2019-09-19 18:00:00 20.2 8 Norte 19 Norte 0 1002.7 -0.8 68
2019-09-19 17:00:00 20.4 13 Norte 24 Norte 0 1002.8 -1 68
2019-09-19 16:00:00 21.2 11 Norte 22 Noroeste 0 1003.2 -1.2 68
2019-09-19 15:00:00 22 12 Norte 21 Norte 0 1003.5 -1.4 65
2019-09-19 14:00:00 24.2 3 Sudeste 10 Este 0 1003.8 -1.4 55
2019-09-19 13:00:00 23.1 3 Sur 13 Sudoeste 0 1004.4 -0.8 59
2019-09-19 12:00:00 21.5 5 Sudoeste 14 Sudoeste 0 1004.9 0 65
2019-09-19 11:00:00 19.7 8 Sudoeste 15 Sudoeste 0 1005.2 0.6 77
2019-09-19 10:00:00 16.8 0 Calma -- -- 0 1005.2 0.9 95
2019-09-19 09:00:00 14.3 0 Calma -- -- 0 1004.9 0.7 95
2019-09-19 08:00:00 13.8 0 Calma -- -- 0 1004.6 0.2 95
2019-09-19 07:00:00 14 0 Calma -- -- 0 1004.3 -0.4 95
2019-09-19 06:00:00 14.4 0 Calma -- -- 0 1004.2 -0.7 95
2019-09-19 05:00:00 14.9 0 Calma 4 Sur 0 1004.4 -0.6 95
2019-09-19 04:00:00 15 0 Calma -- -- 0 1004.7 -0.4 94
2019-09-19 03:00:00 15.5 0 Calma -- -- 0 1004.9 -0.2 94
2019-09-19 02:00:00 16 0 Calma -- -- 0 1005 0.1 93
2019-09-19 01:00:00 16.6 0 Calma -- -- 0 1005.1 0.5 92
2019-09-19 00:00:00 16.5 0 Calma -- -- 0 1005.1 0.9 91
2019-09-18 23:00:00 17.1 0 Calma -- -- 0 1004.9 1.1 89
2019-09-18 22:00:00 17.9 0 Calma -- -- 0 1004.6 0.9 89
2019-09-18 21:00:00 18.4 0 Calma 8 Norte 0 1004.2 1 86
2019-09-18 20:00:00 19 3 Norte 14 Noroeste 0 1003.8 1.1 84
2019-09-18 19:00:00 19.5 7 Norte 21 Norte 0 1003.7 0.6 81
2019-09-18 18:00:00 21 6 Norte 18 Noroeste 0 1003.2 -0.2 77
2019-09-18 17:00:00 22.1 8 Noroeste 16 Noroeste 0 1002.7 -0.7 70
2019-09-18 16:00:00 22.6 6 Noroeste 15 Sudoeste 0 1003.1 0.2 65
2019-09-18 15:00:00 23.2 4 Sudoeste 16 Sudoeste 0 1003.4 0.1 65
2019-09-18 14:00:00 21.9 7 Sudoeste 18 Sudoeste 0 1003.4 0.2 72
2019-09-18 13:00:00 21.5 8 Sudoeste 16 Sur 0.1 1002.9 -0.6 75
2019-09-18 12:00:00 20.7 5 Sur 16 Sur 0 1003.3 0.8 81
2019-09-18 11:00:00 18.4 0 Calma 14 Sudeste 0 1003.2 1.5 94
2019-09-18 10:00:00 17.3 0 Calma 12 Oeste 0 1003.5 1.9 95
2019-09-18 09:00:00 16.4 0 Calma 5 Sudoeste 0 1002.5 0.9 95
2019-09-18 08:00:00 16 0 Calma 9 Sudoeste 0 1001.7 0 94
2019-09-18 07:00:00 16.6 4 Sudoeste 11 Sudoeste 0 1001.6 -0.9 94
2019-09-18 06:00:00 17 0 Calma 8 Este 0 1001.6 -0.6 94
2019-09-18 05:00:00 17.5 0 Calma 9 Sudoeste 0 1001.7 -0.4 94
2019-09-18 04:00:00 16.5 0 Calma -- -- 0 1002.5 0.1 93
2019-09-18 03:00:00 16.5 0 Calma 8 Sudoeste 0 1002.2 -0.6 93
2019-09-18 02:00:00 16.7 0 Calma 8 Sudoeste 0 1002.1 -0.3 92
2019-09-18 01:00:00 16.9 3 Nordeste 9 Nordeste 0 1002.4 0.1 92
2019-09-18 00:00:00 17.4 0 Calma 7 Oeste 0 1002.8 0.9 91
2019-09-17 23:00:00 17.6 0 Calma -- -- 0 1002.4 1 89
2019-09-17 22:00:00 18.7 0 Calma 6 Este 0 1002.3 0.9 86
2019-09-17 21:00:00 19.9 0 Calma 9 Norte 0 1001.9 0.2 84